createdAt,value
2022-12-01T00:00:43.662Z,7.11
2022-12-01T00:03:10.074Z,7.14
2022-12-01T00:05:36.751Z,7.16
2022-12-01T00:08:05.127Z,7.14
2022-12-01T00:10:33.275Z,7.16
2022-12-01T00:13:01.923Z,7.13
2022-12-01T00:15:29.191Z,7.15
2022-12-01T00:17:56.013Z,7.08
2022-12-01T00:20:22.389Z,7.10
2022-12-01T00:22:49.226Z,7.12
2022-12-01T00:25:18.435Z,7.15
2022-12-01T00:27:51.434Z,7.16
2022-12-01T00:30:19.680Z,7.14
2022-12-01T00:32:46.514Z,7.14
2022-12-01T00:35:13.775Z,7.12
2022-12-01T00:37:40.099Z,7.06
2022-12-01T00:40:07.699Z,7.11
2022-12-01T00:42:34.319Z,7.06
2022-12-01T00:45:00.668Z,7.06
2022-12-01T00:47:27.138Z,7.06
2022-12-01T00:49:53.540Z,7.04
2022-12-01T00:52:20.232Z,7.03
2022-12-01T00:54:46.730Z,6.99
2022-12-01T00:57:13.628Z,7.00
2022-12-01T00:59:39.988Z,6.99
2022-12-01T01:02:07.857Z,7.01
2022-12-01T01:04:35.855Z,7.10
2022-12-01T01:07:02.434Z,7.08
2022-12-01T01:09:28.825Z,7.12
2022-12-01T01:11:55.205Z,7.10
2022-12-01T01:14:24.183Z,7.14
2022-12-01T01:16:50.716Z,7.11
2022-12-01T01:19:17.724Z,7.11
2022-12-01T01:21:44.120Z,7.10
2022-12-01T01:24:10.549Z,7.07
2022-12-01T01:26:37.975Z,7.07
2022-12-01T01:29:07.653Z,7.09
2022-12-01T01:31:34.612Z,7.06
2022-12-01T01:34:01.244Z,7.05
2022-12-01T01:36:27.901Z,7.02
2022-12-01T01:38:55.175Z,7.04
2022-12-01T01:41:22.638Z,7.02
2022-12-01T01:43:55.205Z,7.01
2022-12-01T01:46:24.584Z,7.00
2022-12-01T01:48:55.140Z,7.00
2022-12-01T01:51:27.022Z,7.05
2022-12-01T01:53:56.748Z,6.99
2022-12-01T01:56:23.770Z,7.03
2022-12-01T01:58:51.998Z,6.99
2022-12-01T02:01:18.495Z,7.00
2022-12-01T02:03:45.990Z,7.03
2022-12-01T02:06:12.388Z,7.04
2022-12-01T02:08:38.782Z,7.01
2022-12-01T02:11:48.519Z,7.06
2022-12-01T02:14:42.466Z,7.07
2022-12-01T02:17:41.852Z,7.07
2022-12-01T02:20:30.123Z,7.10
2022-12-01T02:23:31.237Z,7.07
2022-12-01T02:26:16.243Z,7.02
2022-12-01T02:29:09.057Z,7.09
2022-12-01T02:31:43.449Z,7.15
2022-12-01T02:34:43.611Z,7.10
2022-12-01T02:37:31.077Z,7.06
2022-12-01T02:40:07.640Z,7.11
2022-12-01T02:42:53.859Z,7.11
2022-12-01T02:45:31.520Z,7.10
2022-12-01T02:48:01.859Z,7.05
2022-12-01T02:50:31.796Z,7.09
2022-12-01T02:53:00.339Z,7.07
2022-12-01T02:55:26.717Z,7.04
2022-12-01T02:57:53.059Z,7.05
2022-12-01T03:00:19.682Z,7.08
2022-12-01T03:03:04.888Z,7.10
2022-12-01T03:05:48.233Z,7.07
2022-12-01T03:08:32.557Z,7.09
2022-12-01T03:11:00.462Z,7.04
2022-12-01T03:13:38.961Z,7.10
2022-12-01T03:16:21.226Z,7.08
2022-12-01T03:18:53.604Z,7.04
2022-12-01T03:21:22.875Z,7.02
2022-12-01T03:23:55.210Z,7.08
2022-12-01T03:26:24.254Z,7.03
2022-12-01T03:28:54.810Z,7.04
2022-12-01T03:31:29.022Z,7.07
2022-12-01T03:34:00.851Z,7.09
2022-12-01T03:36:32.467Z,7.13
2022-12-01T03:39:06.829Z,7.13
2022-12-01T03:41:41.817Z,7.12
2022-12-01T03:44:20.574Z,7.13
2022-12-01T03:46:53.844Z,7.09
2022-12-01T03:49:24.646Z,7.09
2022-12-01T03:52:12.668Z,7.10
2022-12-01T03:55:12.000Z,7.09
2022-12-01T03:57:46.170Z,7.06
2022-12-01T04:00:15.255Z,7.05
2022-12-01T04:02:41.709Z,7.05
2022-12-01T04:05:10.972Z,7.03
2022-12-01T04:07:38.323Z,7.00
2022-12-01T04:10:05.907Z,7.03
2022-12-01T04:12:33.133Z,7.03
2022-12-01T04:15:05.206Z,7.01
2022-12-01T04:17:31.532Z,7.00
2022-12-01T04:19:58.207Z,7.00
2022-12-01T04:22:25.061Z,6.99
2022-12-01T04:24:51.871Z,6.97
2022-12-01T04:27:18.915Z,6.99
2022-12-01T04:29:45.422Z,7.01
2022-12-01T04:32:12.468Z,7.03
2022-12-01T04:34:38.888Z,7.04
2022-12-01T04:37:06.069Z,7.04
2022-12-01T04:39:32.401Z,7.03
2022-12-01T04:41:58.729Z,7.00
2022-12-01T04:44:28.879Z,7.00
2022-12-01T04:46:58.007Z,6.97
2022-12-01T04:49:24.742Z,6.98
2022-12-01T04:51:51.185Z,6.93
2022-12-01T04:54:18.152Z,6.91
2022-12-01T04:56:44.993Z,6.95
2022-12-01T04:59:11.494Z,6.92
2022-12-01T05:01:38.468Z,6.91
2022-12-01T05:04:04.966Z,6.88
2022-12-01T05:06:31.330Z,6.88
2022-12-01T05:09:00.324Z,6.92
2022-12-01T05:11:28.546Z,6.92
2022-12-01T05:13:55.190Z,6.90
2022-12-01T05:16:25.090Z,6.91
2022-12-01T05:19:12.929Z,6.90
2022-12-01T05:21:40.216Z,6.87
2022-12-01T05:24:07.802Z,6.87
2022-12-01T05:26:34.605Z,6.81
2022-12-01T05:29:00.958Z,6.80
2022-12-01T05:31:27.506Z,6.81
2022-12-01T05:33:53.939Z,6.84
2022-12-01T05:36:20.257Z,6.81
2022-12-01T05:38:46.832Z,6.81
2022-12-01T05:41:13.469Z,6.87
2022-12-01T05:43:39.802Z,6.87
2022-12-01T05:46:06.298Z,6.84
2022-12-01T05:48:32.749Z,6.84
2022-12-01T05:50:59.173Z,6.81
2022-12-01T05:53:25.563Z,6.82
2022-12-01T05:55:53.440Z,6.84
2022-12-01T05:58:20.810Z,6.84
2022-12-01T06:00:47.184Z,6.80
2022-12-01T06:03:14.437Z,6.80
2022-12-01T06:05:40.867Z,6.78
2022-12-01T06:08:07.768Z,6.79
2022-12-01T06:10:34.466Z,6.73
2022-12-01T06:13:00.859Z,6.74
2022-12-01T06:15:27.305Z,6.72
2022-12-01T06:17:53.821Z,6.72
2022-12-01T06:20:20.504Z,6.70
2022-12-01T06:22:46.827Z,6.72
2022-12-01T06:25:13.133Z,6.74
2022-12-01T06:27:39.449Z,6.73
2022-12-01T06:30:06.760Z,6.75
2022-12-01T06:32:33.283Z,6.71
2022-12-01T06:34:59.636Z,6.72
2022-12-01T06:37:27.606Z,6.72
2022-12-01T06:39:54.171Z,6.71
2022-12-01T06:42:20.595Z,6.72
2022-12-01T06:44:46.933Z,6.69
2022-12-01T06:47:13.347Z,6.72
2022-12-01T06:49:39.710Z,6.72
2022-12-01T06:52:06.075Z,6.75
2022-12-01T06:54:33.374Z,6.73
2022-12-01T06:56:59.730Z,6.70
2022-12-01T06:59:26.160Z,6.71
2022-12-01T07:01:52.964Z,6.69
2022-12-01T07:04:19.333Z,6.71
2022-12-01T07:06:45.737Z,6.67
2022-12-01T07:09:12.344Z,6.64
2022-12-01T07:11:38.776Z,6.62
2022-12-01T07:14:05.199Z,6.59
2022-12-01T07:16:31.596Z,6.60
2022-12-01T07:18:59.821Z,6.59
2022-12-01T07:21:26.127Z,6.53
2022-12-01T07:23:52.492Z,6.53
2022-12-01T07:26:18.922Z,6.56
2022-12-01T07:28:45.439Z,6.56
2022-12-01T07:31:18.171Z,6.60
2022-12-01T07:33:45.064Z,6.53
2022-12-01T07:36:12.824Z,6.54
2022-12-01T07:38:39.854Z,6.53
2022-12-01T07:41:12.126Z,6.54
2022-12-01T07:43:38.938Z,6.52
2022-12-01T07:46:15.749Z,6.58
2022-12-01T07:48:45.489Z,6.53
2022-12-01T07:51:18.004Z,6.56
2022-12-01T07:53:45.764Z,6.59
2022-12-01T07:56:12.736Z,6.60
2022-12-01T07:58:39.490Z,6.61
2022-12-01T08:01:12.196Z,6.65
2022-12-01T08:03:39.009Z,6.66
2022-12-01T08:06:06.644Z,6.66
2022-12-01T08:08:36.088Z,6.71
2022-12-01T08:11:14.080Z,6.68
2022-12-01T08:13:41.805Z,6.71
2022-12-01T08:16:10.178Z,6.72
2022-12-01T08:18:38.229Z,6.76
2022-12-01T08:21:06.474Z,6.81
2022-12-01T08:23:33.290Z,6.82
2022-12-01T08:26:09.415Z,6.86
2022-12-01T08:28:36.844Z,6.85
2022-12-01T08:31:12.347Z,6.89
2022-12-01T08:33:38.896Z,6.87
2022-12-01T08:36:05.781Z,6.91
2022-12-01T08:38:33.058Z,6.94
2022-12-01T08:41:01.373Z,6.95
2022-12-01T08:43:49.967Z,6.96
2022-12-01T08:46:14.479Z,7.03
2022-12-01T08:48:41.282Z,7.02
2022-12-01T08:51:10.997Z,7.03
2022-12-01T08:53:44.090Z,7.06
2022-12-01T08:56:13.897Z,7.04
2022-12-01T08:58:40.412Z,7.04
2022-12-01T09:01:09.534Z,7.08
2022-12-01T09:03:37.534Z,7.04
2022-12-01T09:06:06.981Z,7.07
2022-12-01T09:08:35.082Z,7.07
2022-12-01T09:11:04.570Z,7.13
2022-12-01T09:13:33.055Z,7.15
2022-12-01T09:16:05.359Z,7.19
2022-12-01T09:18:32.244Z,7.20
2022-12-01T09:20:59.117Z,7.21
2022-12-01T09:23:26.548Z,7.23
2022-12-01T09:25:53.629Z,7.21
2022-12-01T09:28:20.617Z,7.24
2022-12-01T09:30:47.381Z,7.25
2022-12-01T09:33:13.838Z,7.28
2022-12-01T09:35:40.232Z,7.33
2022-12-01T09:38:06.573Z,7.37
2022-12-01T09:40:38.105Z,7.41
2022-12-01T09:43:13.631Z,7.46
2022-12-01T09:45:45.141Z,7.50
2022-12-01T09:48:23.571Z,7.54
2022-12-01T09:50:50.000Z,7.51
2022-12-01T09:53:21.448Z,7.55
2022-12-01T09:55:49.025Z,7.56
2022-12-01T09:58:20.373Z,7.56
2022-12-01T10:00:49.491Z,7.57
2022-12-01T10:03:32.980Z,7.64
2022-12-01T10:06:26.885Z,7.65
2022-12-01T10:09:20.714Z,7.60
2022-12-01T10:11:48.427Z,7.60
2022-12-01T10:14:19.979Z,7.60
2022-12-01T10:17:18.098Z,7.58
2022-12-01T10:20:11.742Z,7.55
2022-12-01T10:23:05.756Z,7.63
2022-12-01T10:25:42.394Z,7.69
2022-12-01T10:28:39.405Z,7.72
2022-12-01T10:31:20.228Z,7.72
2022-12-01T10:33:58.338Z,7.72
2022-12-01T10:36:26.154Z,7.71
2022-12-01T10:38:52.728Z,7.72
2022-12-01T10:41:22.128Z,7.80
2022-12-01T10:43:52.412Z,7.86
2022-12-01T10:46:27.644Z,7.93
2022-12-01T10:48:59.327Z,7.94
2022-12-01T10:51:27.548Z,8.07
2022-12-01T10:54:08.078Z,8.20
2022-12-01T10:56:39.121Z,8.20
2022-12-01T10:59:24.349Z,8.24
2022-12-01T11:01:51.030Z,8.18
2022-12-01T11:04:44.947Z,8.16
2022-12-01T11:07:22.740Z,8.13
2022-12-01T11:10:02.646Z,8.12
2022-12-01T11:12:29.513Z,8.08
2022-12-01T11:14:57.343Z,8.13
2022-12-01T11:17:40.304Z,8.17
2022-12-01T11:20:28.354Z,8.23
2022-12-01T11:23:09.888Z,8.26
2022-12-01T11:25:36.647Z,8.21
2022-12-01T11:28:04.483Z,8.25
2022-12-01T11:30:32.697Z,8.28
2022-12-01T11:33:02.520Z,8.29
2022-12-01T11:35:36.194Z,8.30
2022-12-01T11:40:55.316Z,8.27
2022-12-01T11:43:34.347Z,8.29
2022-12-01T11:46:05.828Z,8.30
2022-12-01T11:48:36.161Z,8.26
2022-12-01T11:51:27.229Z,8.32
2022-12-01T11:54:14.254Z,8.35
2022-12-01T11:56:42.204Z,8.36
2022-12-01T11:59:17.830Z,8.38
2022-12-01T12:02:06.550Z,8.41
2022-12-01T12:04:42.858Z,8.42
2022-12-01T12:07:24.656Z,8.51
2022-12-01T12:10:05.512Z,8.51
2022-12-01T12:12:47.102Z,8.48
2022-12-01T12:15:51.103Z,8.49
2022-12-01T12:18:17.433Z,8.50
2022-12-01T12:20:59.235Z,8.57
2022-12-01T12:23:28.586Z,8.63
2022-12-01T12:26:20.474Z,8.79
2022-12-01T12:29:24.528Z,8.92
2022-12-01T12:32:19.599Z,9.03
2022-12-01T12:35:03.906Z,9.05
2022-12-01T12:37:53.845Z,8.95
2022-12-01T12:40:32.748Z,8.90
2022-12-01T12:43:05.120Z,8.81
2022-12-01T12:45:50.332Z,8.73
2022-12-01T12:48:32.735Z,8.76
2022-12-01T12:51:23.647Z,8.76
2022-12-01T12:53:57.961Z,8.73
2022-12-01T12:56:26.810Z,8.74
2022-12-01T12:59:05.478Z,8.74
2022-12-01T13:01:41.032Z,8.75
2022-12-01T13:04:14.192Z,8.74
2022-12-01T13:06:47.166Z,8.77
2022-12-01T13:09:20.078Z,8.87
2022-12-01T13:11:59.015Z,8.94
2022-12-01T13:14:34.868Z,9.03
2022-12-01T13:17:24.222Z,9.08
2022-12-01T13:19:50.857Z,9.01
2022-12-01T13:22:21.785Z,9.00
2022-12-01T13:24:48.210Z,8.93
2022-12-01T13:27:19.283Z,8.97
2022-12-01T13:29:49.585Z,8.84
2022-12-01T13:32:31.934Z,8.77
2022-12-01T13:35:00.289Z,8.73
2022-12-01T13:37:35.486Z,8.73
2022-12-01T13:40:24.216Z,8.69
2022-12-01T13:43:20.915Z,8.65
2022-12-01T13:45:48.944Z,8.63
2022-12-01T13:48:49.997Z,8.69
2022-12-01T13:51:16.528Z,8.69
2022-12-01T13:54:05.873Z,8.69
2022-12-01T13:56:39.776Z,8.68
2022-12-01T13:59:38.008Z,8.67
2022-12-01T14:02:19.684Z,8.65
2022-12-01T14:04:46.478Z,8.56
2022-12-01T14:07:19.221Z,8.60
2022-12-01T14:09:45.991Z,8.55
2022-12-01T14:12:19.709Z,8.55
2022-12-01T14:15:02.111Z,8.52
2022-12-01T14:17:38.542Z,8.56
2022-12-01T14:20:12.966Z,8.55
2022-12-01T14:22:46.016Z,8.51
2022-12-01T14:25:21.353Z,8.51
2022-12-01T14:27:55.249Z,8.49
2022-12-01T14:30:40.039Z,8.44
2022-12-01T14:33:42.280Z,8.44
2022-12-01T14:36:24.227Z,8.44
2022-12-01T14:38:59.418Z,8.42
2022-12-01T14:41:33.427Z,8.40
2022-12-01T14:44:05.404Z,8.38
2022-12-01T14:47:04.348Z,8.35
2022-12-01T14:49:49.925Z,8.29
2022-12-01T14:52:42.194Z,8.30
2022-12-01T14:55:19.173Z,8.29
2022-12-01T14:58:00.103Z,8.26
2022-12-01T15:00:26.739Z,8.19
2022-12-01T15:02:58.837Z,8.19
2022-12-01T15:05:28.206Z,8.17
2022-12-01T15:08:18.634Z,8.14
2022-12-01T15:10:51.677Z,8.16
2022-12-01T15:13:28.256Z,8.16
2022-12-01T15:15:56.195Z,8.12
2022-12-01T15:18:39.565Z,8.12
2022-12-01T15:21:12.029Z,8.10
2022-12-01T15:24:01.914Z,8.07
2022-12-01T15:26:34.258Z,8.04
2022-12-01T15:29:31.697Z,7.99
2022-12-01T15:32:02.952Z,7.95
2022-12-01T15:34:38.500Z,7.94
2022-12-01T15:37:09.554Z,7.90
2022-12-01T15:39:42.838Z,7.90
2022-12-01T15:42:22.717Z,7.92
2022-12-01T15:45:12.586Z,7.88
2022-12-01T15:47:43.407Z,7.86
2022-12-01T15:50:48.993Z,7.84
2022-12-01T15:53:29.309Z,7.87
2022-12-01T15:55:59.355Z,7.80
2022-12-01T15:58:30.132Z,7.85
2022-12-01T16:01:02.413Z,7.85
2022-12-01T16:03:29.420Z,7.78
2022-12-01T16:05:57.069Z,7.76
2022-12-01T16:08:27.080Z,7.77
2022-12-01T16:11:11.382Z,7.78
2022-12-01T16:13:47.878Z,7.75
2022-12-01T16:16:46.285Z,7.78
2022-12-01T16:19:12.556Z,7.77
2022-12-01T16:22:11.950Z,7.78
2022-12-01T16:24:46.540Z,7.80
2022-12-01T16:27:23.711Z,7.77
2022-12-01T16:30:06.368Z,7.74
2022-12-01T16:32:38.417Z,7.69
2022-12-01T16:35:24.616Z,7.75
2022-12-01T16:37:51.034Z,7.69
2022-12-01T16:40:17.477Z,7.64
2022-12-01T16:42:43.956Z,7.59
2022-12-01T16:45:14.667Z,7.64
2022-12-01T16:47:42.346Z,7.61
2022-12-01T16:50:14.769Z,7.64
2022-12-01T16:52:44.541Z,7.60
2022-12-01T16:55:29.251Z,7.66
2022-12-01T16:57:55.831Z,7.60
2022-12-01T17:00:23.402Z,7.61
2022-12-01T17:02:50.192Z,7.58
2022-12-01T17:05:16.769Z,7.56
2022-12-01T17:07:43.204Z,7.55
2022-12-01T17:10:10.337Z,7.57
2022-12-01T17:12:36.760Z,7.46
2022-12-01T17:15:04.181Z,7.52
2022-12-01T17:17:30.551Z,7.48
2022-12-01T17:19:56.916Z,7.51
2022-12-01T17:22:24.321Z,7.50
2022-12-01T17:24:51.027Z,7.48
2022-12-01T17:27:18.022Z,7.49
2022-12-01T17:29:46.426Z,7.42
2022-12-01T17:32:13.928Z,7.45
2022-12-01T17:34:40.448Z,7.45
2022-12-01T17:37:07.110Z,7.41
2022-12-01T17:39:33.657Z,7.46
2022-12-01T17:42:00.005Z,7.45
2022-12-01T17:44:26.645Z,7.46
2022-12-01T17:46:53.199Z,7.43
2022-12-01T17:49:19.716Z,7.39
2022-12-01T17:51:46.144Z,7.40
2022-12-01T17:54:12.603Z,7.46
2022-12-01T17:56:39.148Z,7.45
2022-12-01T17:59:05.572Z,7.48
2022-12-01T18:01:32.323Z,7.48
2022-12-01T18:03:59.135Z,7.46
2022-12-01T18:06:26.819Z,7.41
2022-12-01T18:08:53.552Z,7.40
2022-12-01T18:11:20.368Z,7.39
2022-12-01T18:13:49.183Z,7.40
2022-12-01T18:16:20.981Z,7.36
2022-12-01T18:18:48.109Z,7.32
2022-12-01T18:21:17.154Z,7.31
2022-12-01T18:23:52.734Z,7.33
2022-12-01T18:26:21.835Z,7.26
2022-12-01T18:28:54.983Z,7.31
2022-12-01T18:31:21.539Z,7.25
2022-12-01T18:33:48.061Z,7.21
2022-12-01T18:36:18.317Z,7.27
2022-12-01T18:38:47.091Z,7.25
2022-12-01T18:41:13.686Z,7.27
2022-12-01T18:43:40.124Z,7.22
2022-12-01T18:46:07.460Z,7.21
2022-12-01T18:48:35.011Z,7.23
2022-12-01T18:51:05.955Z,7.24
2022-12-01T18:53:35.459Z,7.20
2022-12-01T18:56:06.933Z,7.23
2022-12-01T18:58:33.842Z,7.23
2022-12-01T19:01:01.147Z,7.25
2022-12-01T19:03:33.251Z,7.25
2022-12-01T19:05:59.685Z,7.22
2022-12-01T19:08:26.096Z,7.22
2022-12-01T19:11:03.415Z,7.24
2022-12-01T19:13:31.213Z,7.20
2022-12-01T19:15:57.754Z,7.17
2022-12-01T19:18:24.818Z,7.15
2022-12-01T19:20:51.252Z,7.13
2022-12-01T19:23:17.633Z,7.12
2022-12-01T19:25:43.934Z,7.12
2022-12-01T19:28:10.298Z,7.14
2022-12-01T19:30:36.696Z,7.09
2022-12-01T19:33:03.085Z,7.10
2022-12-01T19:35:29.490Z,7.09
2022-12-01T19:37:55.842Z,7.17
2022-12-01T19:40:22.208Z,7.08
2022-12-01T19:42:48.570Z,7.10
2022-12-01T19:45:14.985Z,7.11
2022-12-01T19:47:41.339Z,7.13
2022-12-01T19:50:08.414Z,7.16
2022-12-01T19:52:36.485Z,7.15
2022-12-01T19:55:03.227Z,7.17
2022-12-01T19:57:29.573Z,7.16
2022-12-01T19:59:55.928Z,7.10
2022-12-01T20:02:28.947Z,7.08
2022-12-01T20:04:56.524Z,7.08
2022-12-01T20:07:23.147Z,7.07
2022-12-01T20:09:50.231Z,7.06
2022-12-01T20:12:16.812Z,6.99
2022-12-01T20:14:43.223Z,6.99
2022-12-01T20:17:15.581Z,6.96
2022-12-01T20:19:42.345Z,6.99
2022-12-01T20:22:08.744Z,6.97
2022-12-01T20:24:35.914Z,6.95
2022-12-01T20:27:02.621Z,6.88
2022-12-01T20:29:29.741Z,6.95
2022-12-01T20:31:58.044Z,6.94
2022-12-01T20:34:27.533Z,6.90
2022-12-01T20:36:54.981Z,6.92
2022-12-01T20:39:21.634Z,6.91
2022-12-01T20:41:48.404Z,6.89
2022-12-01T20:44:16.622Z,6.90
2022-12-01T20:46:47.636Z,6.88
2022-12-01T20:49:16.673Z,6.90
2022-12-01T20:51:43.627Z,6.85
2022-12-01T20:54:29.864Z,6.88
2022-12-01T20:56:57.405Z,6.82
2022-12-01T20:59:24.018Z,6.82
2022-12-01T21:01:50.401Z,6.82
2022-12-01T21:04:17.596Z,6.84
2022-12-01T21:06:44.021Z,6.84
2022-12-01T21:09:11.492Z,6.84
2022-12-01T21:12:04.785Z,6.90
2022-12-01T21:14:39.020Z,6.92
2022-12-01T21:17:18.640Z,6.93
2022-12-01T21:20:01.356Z,6.93
2022-12-01T21:22:27.777Z,6.87
2022-12-01T21:25:03.506Z,6.90
2022-12-01T21:27:29.869Z,6.88
2022-12-01T21:29:56.855Z,6.93
2022-12-01T21:32:31.207Z,6.94
2022-12-01T21:35:13.982Z,6.90
2022-12-01T21:37:40.348Z,6.83
2022-12-01T21:40:20.332Z,6.84
2022-12-01T21:42:47.529Z,6.83
2022-12-01T21:45:31.874Z,6.87
2022-12-01T21:48:05.760Z,6.83
2022-12-01T21:50:32.758Z,6.79
2022-12-01T21:52:59.168Z,6.80
2022-12-01T21:55:26.005Z,6.80
2022-12-01T21:57:53.691Z,6.79
2022-12-01T22:00:26.611Z,6.80
2022-12-01T22:03:12.071Z,6.82
2022-12-01T22:05:41.464Z,6.82
2022-12-01T22:08:24.482Z,6.78
2022-12-01T22:11:04.593Z,6.80
2022-12-01T22:13:41.890Z,6.81
2022-12-01T22:16:14.595Z,6.81
2022-12-01T22:18:44.734Z,6.80
2022-12-01T22:21:29.861Z,6.76
2022-12-01T22:24:11.290Z,6.78
2022-12-01T22:26:41.179Z,6.76
2022-12-01T22:29:22.608Z,6.79
2022-12-01T22:31:48.942Z,6.73
2022-12-01T22:34:16.570Z,6.77
2022-12-01T22:36:42.872Z,6.70
2022-12-01T22:39:46.842Z,6.77
2022-12-01T22:42:20.861Z,6.70
2022-12-01T22:44:47.553Z,6.63
2022-12-01T22:47:14.474Z,6.70
2022-12-01T22:49:42.332Z,6.69
2022-12-01T22:52:22.349Z,6.56
2022-12-01T22:54:50.270Z,6.56
2022-12-01T22:57:28.321Z,6.51
2022-12-01T22:59:55.326Z,6.44
2022-12-01T23:02:29.706Z,6.44
2022-12-01T23:05:01.536Z,6.39
2022-12-01T23:07:33.864Z,6.31
2022-12-01T23:10:12.069Z,6.33
2022-12-01T23:12:38.681Z,6.24
2022-12-01T23:15:32.152Z,6.30
2022-12-01T23:18:17.986Z,6.25
2022-12-01T23:20:46.962Z,6.22
2022-12-01T23:23:30.367Z,6.21
2022-12-01T23:25:57.234Z,6.17
2022-12-01T23:28:24.535Z,6.12
2022-12-01T23:30:58.081Z,6.16
2022-12-01T23:33:27.942Z,6.10
2022-12-01T23:35:59.283Z,6.09
2022-12-01T23:38:37.158Z,6.10
2022-12-01T23:41:16.371Z,6.07
2022-12-01T23:43:45.010Z,6.07
2022-12-01T23:46:20.550Z,6.05
2022-12-01T23:48:51.168Z,6.04
2022-12-01T23:51:28.365Z,6.07
2022-12-01T23:53:56.415Z,6.01
2022-12-01T23:56:25.019Z,5.99
2022-12-01T23:58:52.726Z,5.96
